Time;durP1;ratioP1;P1;durP2;ratioP2;P2;SDS_P1;SDS_P2;PMS_P1;PMS_P2;Temp;Humidity;BMP_temperature;BMP_pressure;BME280_temperature;BME280_humidity;BME280_pressure;Samples;Min_cycle;Max_cycle;Signal;HPM_P1;HPM_P2
2022/05/06 00:00:13;;;;;;;;;17.75;16.75;;;;;14.89;62.51;102363.69;5078085;28;49659;-68
2022/05/06 00:02:38;;;;;;;;;17.75;16.25;;;;;14.87;62.85;102378.63;5078508;28;49349;-67
2022/05/06 00:05:05;;;;;;;;;22.50;20.00;;;;;14.91;62.46;102382.22;5076101;28;49624;-68
2022/05/06 00:07:30;;;;;;;;;17.25;16.25;;;;;14.81;62.87;102367.84;5081023;28;49661;-68
2022/05/06 00:09:56;;;;;;;;;16.75;16.75;;;;;14.87;63.24;102387.44;5076949;27;49744;-68
2022/05/06 00:12:21;;;;;;;;;18.00;17.25;;;;;14.84;63.67;102386.44;5079178;28;50092;-68
2022/05/06 00:14:47;;;;;;;;;16.75;16.00;;;;;14.82;64.24;102391.69;5076657;28;49597;-67
2022/05/06 00:17:13;;;;;;;;;20.25;19.00;;;;;14.86;64.09;102393.59;5072963;28;49804;-67
2022/05/06 00:19:38;;;;;;;;;22.75;20.25;;;;;14.75;64.14;102365.91;5079654;28;49597;-68
2022/05/06 00:22:04;;;;;;;;;17.25;16.00;;;;;14.80;64.15;102372.25;5074754;28;49836;-68
2022/05/06 00:24:29;;;;;;;;;19.25;19.25;;;;;14.81;63.95;102362.56;5082065;28;49820;-68
2022/05/06 00:26:58;;;;;;;;;20.00;18.50;;;;;14.70;63.69;102343.75;5086029;28;51142;-70
2022/05/06 00:29:24;;;;;;;;;15.50;13.50;;;;;14.80;63.92;102368.72;5079679;27;49752;-68
2022/05/06 00:31:49;;;;;;;;;25.25;19.00;;;;;14.84;64.36;102367.94;5077991;28;50037;-68
2022/05/06 00:34:15;;;;;;;;;21.50;20.50;;;;;14.96;63.74;102391.19;5070312;28;49965;-69
2022/05/06 00:36:40;;;;;;;;;19.75;17.75;;;;;14.90;63.93;102370.75;5075795;28;50053;-68
2022/05/06 00:39:06;;;;;;;;;17.50;14.75;;;;;14.98;64.06;102381.56;5075809;27;49680;-69
2022/05/06 00:41:35;;;;;;;;;23.00;20.25;;;;;14.98;64.12;102398.31;5081932;27;49930;-69
2022/05/06 00:44:01;;;;;;;;;25.50;22.75;;;;;14.99;64.19;102392.19;5080314;27;49870;-68
2022/05/06 00:46:26;;;;;;;;;18.75;18.50;;;;;14.82;63.92;102356.41;5076559;28;49807;-68
2022/05/06 00:48:52;;;;;;;;;22.75;19.75;;;;;14.87;64.27;102374.22;5080070;28;61780;-69
2022/05/06 00:51:20;;;;;;;;;21.50;21.50;;;;;14.82;64.29;102365.25;5081876;28;49667;-70
2022/05/06 00:53:47;;;;;;;;;18.25;17.50;;;;;14.93;64.31;102375.22;5080816;28;49681;-69
2022/05/06 00:56:15;;;;;;;;;25.50;24.00;;;;;14.95;64.72;102378.81;5072260;28;49953;-69
2022/05/06 00:58:42;;;;;;;;;22.75;19.75;;;;;14.91;64.45;102377.84;5072493;28;50203;-68
2022/05/06 01:01:07;;;;;;;;;18.25;16.00;;;;;14.82;64.43;102369.63;5071014;28;49692;-69
2022/05/06 01:03:33;;;;;;;;;16.50;16.50;;;;;14.83;64.72;102372.31;5072854;28;49880;-71
2022/05/06 01:06:03;;;;;;;;;19.00;16.50;;;;;14.60;64.47;102339.94;5075428;28;50231;-69
2022/05/06 01:08:29;;;;;;;;;19.50;16.00;;;;;14.73;64.85;102364.97;5075323;28;49683;-70
2022/05/06 01:10:55;;;;;;;;;19.25;17.00;;;;;14.63;64.80;102355.00;5080421;28;49941;-71
2022/05/06 01:13:21;;;;;;;;;18.25;17.50;;;;;14.70;65.06;102369.28;5078439;28;49592;-70
2022/05/06 01:15:48;;;;;;;;;18.25;17.50;;;;;14.55;65.56;102349.47;5078106;28;49782;-68
2022/05/06 01:18:13;;;;;;;;;19.25;19.25;;;;;14.61;65.23;102359.34;5071021;27;50051;-70
2022/05/06 01:20:43;;;;;;;;;16.50;16.00;;;;;14.63;65.58;102372.59;5077116;28;49992;-68
2022/05/06 01:23:09;;;;;;;;;23.25;19.75;;;;;14.40;65.39;102335.78;5077888;28;49580;-70
2022/05/06 01:25:34;;;;;;;;;20.75;19.50;;;;;14.53;65.58;102366.13;5070495;28;52458;-69
2022/05/06 01:28:05;;;;;;;;;18.75;17.25;;;;;14.57;65.67;102379.50;5070585;28;60329;-70
2022/05/06 01:30:39;;;;;;;;;18.75;16.00;;;;;14.30;66.12;102347.81;5078279;28;49858;-69
2022/05/06 01:33:09;;;;;;;;;21.75;21.75;;;;;14.35;65.99;102347.03;5075705;28;49735;-69
2022/05/06 01:35:43;;;;;;;;;21.25;20.50;;;;;14.23;65.98;102345.81;5084124;28;51035;-70
2022/05/06 01:38:11;;;;;;;;;19.25;19.25;;;;;14.41;66.61;102378.94;5076711;28;49814;-70
2022/05/06 01:40:42;;;;;;;;;21.50;17.50;;;;;14.28;66.63;102361.81;5075421;28;49873;-70
2022/05/06 01:43:11;;;;;;;;;16.75;16.75;;;;;14.15;66.53;102351.72;5080848;27;49770;-70
2022/05/06 01:45:38;;;;;;;;;30.50;26.50;;;;;14.02;66.84;102324.03;5080423;28;49695;-70
2022/05/06 01:48:05;;;;;;;;;23.25;20.75;;;;;14.15;67.47;102357.88;5078488;28;49604;-70
2022/05/06 01:50:32;;;;;;;;;19.75;18.75;;;;;14.17;67.51;102368.50;5078867;28;49756;-70
2022/05/06 01:52:59;;;;;;;;;21.25;18.00;;;;;14.19;67.79;102378.28;5080315;27;49710;-70
2022/05/06 01:55:24;;;;;;;;;21.00;19.50;;;;;14.13;67.51;102378.09;5075125;28;50950;-69
2022/05/06 01:57:50;;;;;;;;;18.50;18.25;;;;;14.12;68.27;102380.69;5078808;28;49225;-69
2022/05/06 02:00:15;;;;;;;;;24.75;23.25;;;;;14.09;68.06;102378.84;5075484;28;49880;-70
2022/05/06 02:02:41;;;;;;;;;19.00;17.75;;;;;14.09;68.37;102389.41;5080328;28;49819;-69
2022/05/06 02:05:19;;;;;;;;;22.00;19.25;;;;;14.07;68.41;102385.78;5074506;27;49704;-71
2022/05/06 02:07:47;;;;;;;;;22.25;21.25;;;;;14.07;68.56;102398.09;5065258;28;49820;-69
2022/05/06 02:10:12;;;;;;;;;22.75;20.75;;;;;13.97;68.82;102386.34;5080038;28;49655;-70
2022/05/06 02:12:38;;;;;;;;;21.25;20.75;;;;;13.47;68.48;102311.69;5071613;28;49685;-70
2022/05/06 02:15:04;;;;;;;;;31.00;22.25;;;;;13.79;68.68;102359.34;5069845;28;50621;-71
2022/05/06 02:17:29;;;;;;;;;29.00;23.75;;;;;13.82;68.54;102362.09;5076084;28;49707;-70
2022/05/06 02:19:55;;;;;;;;;19.75;19.25;;;;;13.91;69.19;102384.41;5071855;28;49893;-71
2022/05/06 02:22:21;;;;;;;;;15.50;15.00;;;;;13.72;68.79;102352.97;5078995;28;49537;-70
2022/05/06 02:24:46;;;;;;;;;23.50;22.50;;;;;13.75;69.08;102361.88;5070884;28;50208;-71
2022/05/06 02:27:12;;;;;;;;;26.50;21.00;;;;;13.69;69.09;102366.94;5083222;27;49194;-70
2022/05/06 02:29:38;;;;;;;;;25.25;23.25;;;;;13.74;69.65;102381.22;5069260;28;49711;-70
2022/05/06 02:34:48;;;;;;;;;26.00;22.75;;;;;13.17;69.53;102304.47;5071029;28;49831;-71
2022/05/06 02:37:14;;;;;;;;;29.00;26.25;;;;;13.55;69.55;102369.97;5076572;28;49751;-70
2022/05/06 02:39:39;;;;;;;;;25.50;24.75;;;;;13.50;70.29;102376.81;5078227;27;50072;-71
2022/05/06 02:42:05;;;;;;;;;23.00;21.50;;;;;13.41;70.14;102365.16;5076482;28;49790;-71
2022/05/06 02:44:31;;;;;;;;;24.50;22.00;;;;;13.24;70.29;102344.28;5080674;27;49873;-68
2022/05/06 02:46:56;;;;;;;;;29.00;22.00;;;;;13.31;70.40;102368.28;5072438;27;49732;-69
2022/05/06 02:49:22;;;;;;;;;34.75;32.25;;;;;13.32;70.48;102374.47;5078365;27;50034;-70
2022/05/06 02:51:49;;;;;;;;;27.50;26.00;;;;;13.29;71.08;102371.72;5072600;28;49728;-71
2022/05/06 02:54:15;;;;;;;;;25.00;22.50;;;;;13.30;70.85;102386.69;5077549;28;49888;-70
2022/05/06 02:56:41;;;;;;;;;27.75;24.00;;;;;13.15;71.06;102365.91;5080008;28;49681;-69
2022/05/06 02:59:06;;;;;;;;;26.75;25.75;;;;;13.08;71.09;102364.78;5078681;28;49720;-69
2022/05/06 03:01:31;;;;;;;;;26.00;24.75;;;;;13.10;71.26;102378.94;5081837;28;49707;-70
2022/05/06 03:03:57;;;;;;;;;27.50;25.50;;;;;13.06;71.51;102361.22;5075643;28;49783;-71
2022/05/06 03:06:22;;;;;;;;;31.00;26.00;;;;;13.17;71.34;102378.31;5077596;28;49764;-69
2022/05/06 03:08:47;;;;;;;;;25.00;23.75;;;;;13.01;71.21;102359.25;5074894;28;49748;-69
2022/05/06 03:11:13;;;;;;;;;25.25;23.25;;;;;13.11;71.62;102385.09;5081793;28;49711;-70
2022/05/06 03:13:38;;;;;;;;;20.25;20.00;;;;;13.02;71.01;102368.94;5081866;27;53044;-70
2022/05/06 03:16:03;;;;;;;;;29.25;26.25;;;;;13.14;71.67;102401.03;5073909;28;49820;-70
2022/05/06 03:18:29;;;;;;;;;28.25;26.25;;;;;13.00;72.05;102368.00;5070731;28;49729;-70
2022/05/06 03:20:54;;;;;;;;;32.00;25.75;;;;;12.94;71.72;102366.06;5071913;28;50200;-68
2022/05/06 03:23:19;;;;;;;;;33.25;29.75;;;;;13.02;71.43;102385.66;5076058;28;51118;-68
2022/05/06 03:25:45;;;;;;;;;28.00;27.00;;;;;12.93;72.15;102374.75;5077839;28;49761;-68
2022/05/06 03:28:10;;;;;;;;;28.50;25.75;;;;;13.04;72.13;102388.38;5070303;28;49894;-68
2022/05/06 03:30:44;;;;;;;;;30.25;26.50;;;;;13.03;71.71;102390.13;5078081;28;49648;-67
2022/05/06 03:33:10;;;;;;;;;31.25;27.00;;;;;12.99;71.90;102393.47;5077908;27;49961;-67
2022/05/06 03:35:37;;;;;;;;;28.00;26.00;;;;;12.99;72.21;102398.72;5069339;28;49715;-69
2022/05/06 03:38:05;;;;;;;;;29.00;26.25;;;;;12.91;71.94;102387.00;5070330;28;50065;-70
2022/05/06 03:40:31;;;;;;;;;27.50;21.75;;;;;12.97;72.19;102396.88;5082044;27;49576;-69
2022/05/06 03:42:56;;;;;;;;;24.00;22.00;;;;;12.88;72.03;102386.91;5075502;27;49970;-70
2022/05/06 03:45:21;;;;;;;;;29.50;25.00;;;;;12.84;72.47;102383.25;5081937;27;49933;-67
2022/05/06 03:47:47;;;;;;;;;30.25;25.25;;;;;12.84;72.47;102382.38;5079588;28;49569;-69
2022/05/06 03:52:56;;;;;;;;;25.25;25.25;;;;;12.90;72.22;102407.19;5070208;28;50261;-68
2022/05/06 03:55:22;;;;;;;;;28.75;28.75;;;;;12.75;72.40;102387.28;5087135;28;49744;-70
2022/05/06 03:57:48;;;;;;;;;25.25;24.25;;;;;12.86;72.33;102413.19;5082018;28;49415;-67
2022/05/06 04:00:15;;;;;;;;;31.75;29.50;;;;;12.75;72.62;102400.47;5085396;28;49804;-70
2022/05/06 04:02:41;;;;;;;;;26.75;26.75;;;;;12.78;72.47;102397.94;5088385;28;50881;-68
2022/05/06 04:05:07;;;;;;;;;29.75;27.25;;;;;12.82;72.58;102413.91;5088339;28;49336;-69
2022/05/06 04:07:32;;;;;;;;;28.00;25.00;;;;;12.70;72.35;102391.47;5081936;28;49742;-69
2022/05/06 04:09:58;;;;;;;;;32.25;28.25;;;;;12.64;72.47;102371.03;5088601;28;50057;-68
2022/05/06 04:12:23;;;;;;;;;34.50;30.25;;;;;12.72;72.66;102395.06;5087850;28;49774;-69
2022/05/06 04:14:52;;;;;;;;;30.75;26.75;;;;;12.76;72.44;102408.44;5076625;28;49840;-70
2022/05/06 04:17:20;;;;;;;;;32.00;28.25;;;;;12.70;72.72;102407.28;5080155;28;49731;-70
2022/05/06 04:25:15;;;;;;;;;28.75;26.75;;;;;12.63;72.94;102413.16;5073072;28;49832;-69
2022/05/06 04:27:44;;;;;;;;;27.00;23.75;;;;;12.65;72.82;102416.75;5073572;27;49915;-70
2022/05/06 04:30:10;;;;;;;;;30.00;23.75;;;;;12.54;72.66;102401.41;5073358;28;49891;-70
2022/05/06 04:32:36;;;;;;;;;28.75;27.75;;;;;12.70;72.79;102428.38;5073097;28;50790;-68
2022/05/06 04:35:05;;;;;;;;;30.25;29.25;;;;;12.65;72.84;102414.13;5073272;28;49751;-69
2022/05/06 04:37:30;;;;;;;;;24.50;22.00;;;;;12.69;72.84;102432.75;5078347;28;49731;-69
2022/05/06 04:39:57;;;;;;;;;28.75;27.75;;;;;12.54;72.87;102413.69;5071466;28;49659;-68
2022/05/06 04:42:22;;;;;;;;;23.25;21.50;;;;;12.50;72.95;102406.50;5072770;28;49874;-68
2022/05/06 04:44:47;;;;;;;;;32.50;25.25;;;;;12.62;72.76;102435.97;5076648;27;49735;-68
2022/05/06 04:47:13;;;;;;;;;25.50;24.50;;;;;12.54;72.88;102417.22;5073214;28;50293;-68
2022/05/06 04:49:38;;;;;;;;;27.25;26.00;;;;;12.38;72.64;102388.50;5073055;27;49834;-69
2022/05/06 04:52:04;;;;;;;;;25.25;21.75;;;;;12.55;72.79;102426.94;5072448;28;52531;-68
2022/05/06 04:54:30;;;;;;;;;32.75;24.00;;;;;12.62;72.49;102428.06;5072271;27;50087;-69
2022/05/06 04:56:55;;;;;;;;;23.00;23.00;;;;;12.59;72.36;102430.59;5072754;28;49791;-69
2022/05/06 04:59:22;;;;;;;;;28.50;27.00;;;;;12.59;72.49;102427.94;5082816;28;49780;-68
2022/05/06 05:01:48;;;;;;;;;32.75;28.50;;;;;12.70;72.64;102442.44;5091068;28;49481;-68
2022/05/06 05:04:13;;;;;;;;;25.50;24.25;;;;;12.64;72.46;102436.91;5087201;28;49519;-68
2022/05/06 05:06:39;;;;;;;;;27.25;24.50;;;;;12.60;72.19;102425.38;5075007;28;49659;-68
2022/05/06 05:09:04;;;;;;;;;28.75;27.00;;;;;12.71;72.49;102433.69;5072453;28;49621;-67
2022/05/06 05:11:29;;;;;;;;;27.25;24.00;;;;;12.69;72.58;102434.47;5072375;28;49841;-68
2022/05/06 05:13:55;;;;;;;;;29.00;26.75;;;;;12.69;72.21;102430.09;5072389;28;49648;-68
2022/05/06 05:16:21;;;;;;;;;25.25;24.00;;;;;12.77;72.57;102436.56;5075482;28;49928;-68
2022/05/06 05:18:46;;;;;;;;;27.25;24.75;;;;;12.80;72.33;102441.06;5071270;28;49792;-68
2022/05/06 05:21:11;;;;;;;;;24.75;24.00;;;;;12.80;72.35;102441.94;5072355;28;49869;-68
2022/05/06 05:23:37;;;;;;;;;22.25;19.50;;;;;12.88;72.24;102440.50;5072178;28;50043;-68
2022/05/06 05:26:02;;;;;;;;;26.25;26.25;;;;;12.85;71.88;102431.59;5072668;28;49720;-68
2022/05/06 05:28:27;;;;;;;;;27.50;23.00;;;;;12.84;71.85;102432.44;5072301;27;50005;-68
2022/05/06 05:30:53;;;;;;;;;24.00;20.00;;;;;12.99;71.88;102450.56;5071986;28;50617;-68
2022/05/06 05:33:18;;;;;;;;;24.50;22.75;;;;;13.04;71.97;102455.19;5072162;27;50233;-69
2022/05/06 05:35:43;;;;;;;;;24.25;21.50;;;;;12.89;71.14;102426.50;5078098;27;49677;-67
2022/05/06 05:38:09;;;;;;;;;29.25;27.25;;;;;13.05;71.78;102446.44;5072333;27;49586;-68
2022/05/06 05:40:34;;;;;;;;;27.00;26.00;;;;;12.97;71.40;102433.78;5071547;28;49764;-68
2022/05/06 05:43:00;;;;;;;;;33.75;27.25;;;;;13.06;71.38;102448.22;5075434;27;49897;-67
2022/05/06 05:48:21;;;;;;;;;21.25;20.75;;;;;13.10;71.43;102447.47;5066049;28;49817;-68
2022/05/06 05:50:47;;;;;;;;;30.50;28.50;;;;;13.13;70.86;102452.00;5076096;27;51352;-68
2022/05/06 05:53:13;;;;;;;;;24.75;22.50;;;;;13.18;71.12;102453.94;5070290;28;49679;-68
2022/05/06 05:55:38;;;;;;;;;30.50;25.50;;;;;13.15;71.00;102443.28;5071919;28;49960;-68
2022/05/06 05:58:03;;;;;;;;;27.75;27.25;;;;;13.14;70.81;102433.59;5076189;27;49717;-68
2022/05/06 06:00:29;;;;;;;;;26.00;26.00;;;;;13.28;70.64;102446.41;5075839;27;51454;-67
2022/05/06 06:02:56;;;;;;;;;24.75;22.75;;;;;13.35;70.52;102454.59;5073198;27;49730;-67
2022/05/06 06:05:22;;;;;;;;;31.50;28.25;;;;;13.35;70.20;102462.50;5069627;28;50017;-67
2022/05/06 06:07:47;;;;;;;;;34.75;26.50;;;;;13.35;70.83;102446.69;5070876;27;49789;-67
2022/05/06 06:10:12;;;;;;;;;32.75;26.25;;;;;13.37;70.28;102436.19;5071335;27;55005;-67
2022/05/06 06:12:39;;;;;;;;;32.75;27.50;;;;;13.30;70.16;102418.34;5071823;27;49789;-67
2022/05/06 06:15:05;;;;;;;;;36.75;30.00;;;;;13.36;70.31;102434.41;5071520;28;49711;-67
2022/05/06 06:17:31;;;;;;;;;31.75;30.25;;;;;13.48;70.39;102439.19;5076368;27;49917;-67
2022/05/06 06:19:56;;;;;;;;;30.75;27.25;;;;;13.60;70.52;102459.00;5071541;28;49811;-66
2022/05/06 06:22:22;;;;;;;;;27.00;24.25;;;;;13.57;70.30;102439.53;5071799;28;49874;-67
2022/05/06 06:24:47;;;;;;;;;24.25;22.50;;;;;13.56;70.43;102421.91;5071546;27;49750;-66
2022/05/06 06:27:12;;;;;;;;;30.00;25.75;;;;;13.63;70.17;102440.66;5070537;28;49590;-66
2022/05/06 06:29:37;;;;;;;;;26.75;25.50;;;;;13.61;69.49;102437.06;5073271;27;49613;-66
2022/05/06 06:32:03;;;;;;;;;30.00;25.50;;;;;13.70;69.59;102447.03;5073315;27;49845;-68
2022/05/06 06:34:28;;;;;;;;;32.75;29.50;;;;;13.62;69.55;102425.66;5071721;28;49852;-68
2022/05/06 06:36:54;;;;;;;;;26.75;25.25;;;;;13.76;69.05;102447.25;5075767;27;49943;-66
2022/05/06 06:39:19;;;;;;;;;28.50;21.25;;;;;13.89;69.70;102451.19;5075138;27;51554;-68
2022/05/06 06:41:44;;;;;;;;;25.25;24.50;;;;;13.97;68.97;102462.91;5071129;28;50051;-67
2022/05/06 06:44:10;;;;;;;;;28.50;27.00;;;;;13.97;69.39;102463.81;5071674;28;50235;-67
2022/05/06 06:46:35;;;;;;;;;22.00;21.00;;;;;13.97;69.38;102457.63;5071760;27;49736;-67
2022/05/06 06:49:01;;;;;;;;;22.75;22.50;;;;;13.85;69.05;102433.47;5074259;27;50026;-68
2022/05/06 06:51:26;;;;;;;;;33.25;26.75;;;;;14.12;68.78;102463.44;5071333;27;49776;-67
2022/05/06 06:53:54;;;;;;;;;28.75;27.50;;;;;14.17;69.36;102456.56;5071124;28;49813;-68
2022/05/06 06:56:21;;;;;;;;;29.25;27.50;;;;;13.80;69.07;102376.97;5065047;27;49727;-79
2022/05/06 06:58:46;;;;;;;;;28.75;28.00;;;;;14.17;68.87;102443.34;5064637;27;50782;-70
2022/05/06 07:01:12;;;;;;;;;25.50;18.50;;;;;14.28;68.60;102449.91;5053397;27;49935;-71
2022/05/06 07:03:37;;;;;;;;;26.75;23.00;;;;;14.45;68.16;102468.94;5073697;27;50231;-71
2022/05/06 07:14:14;;;;;;;;;29.75;27.75;;;;;14.39;68.70;102436.13;5069991;28;50036;-73
2022/05/06 07:16:40;;;;;;;;;34.75;30.00;;;;;14.68;68.99;102469.69;5060936;28;49807;-73
2022/05/06 07:19:05;;;;;;;;;36.25;32.50;;;;;14.48;68.70;102440.00;5065774;28;50969;-75
2022/05/06 07:21:31;;;;;;;;;35.75;32.25;;;;;14.69;68.60;102466.19;5066177;27;49726;-72
2022/05/06 07:23:56;;;;;;;;;35.25;31.75;;;;;14.76;68.75;102456.69;5060565;27;49830;-70
2022/05/06 07:26:22;;;;;;;;;30.50;28.50;;;;;14.81;68.44;102434.84;5067260;27;50299;-73
2022/05/06 07:28:47;;;;;;;;;32.00;28.50;;;;;14.94;67.66;102432.56;5066020;28;49936;-69
2022/05/06 07:31:12;;;;;;;;;32.50;30.75;;;;;15.13;67.31;102448.09;5066123;28;49841;-75
2022/05/06 07:33:37;;;;;;;;;33.00;29.50;;;;;14.84;67.37;102397.91;5068152;27;49561;-71
2022/05/06 07:36:03;;;;;;;;;35.00;29.75;;;;;15.40;67.69;102470.06;5067235;28;49745;-74
2022/05/06 07:38:30;;;;;;;;;29.00;27.00;;;;;15.42;66.79;102463.06;5065564;28;50778;-75
2022/05/06 07:40:56;;;;;;;;;33.75;30.50;;;;;15.37;66.58;102459.41;5065824;28;49958;-72
2022/05/06 07:43:21;;;;;;;;;31.00;26.00;;;;;15.53;67.32;102473.03;5065659;27;49876;-74
2022/05/06 07:45:46;;;;;;;;;36.25;31.50;;;;;15.53;66.88;102454.50;5066329;27;50007;-72
2022/05/06 07:48:13;;;;;;;;;33.00;29.00;;;;;15.73;66.43;102469.25;5065458;27;49808;-70
2022/05/06 07:50:44;;;;;;;;;31.25;27.00;;;;;15.72;66.11;102448.91;5065995;28;49742;-71
2022/05/06 07:53:10;;;;;;;;;32.75;28.00;;;;;15.78;66.19;102443.78;5065751;28;49754;-69
2022/05/06 07:55:36;;;;;;;;;29.00;26.75;;;;;15.90;65.86;102454.69;5066288;28;49750;-68
2022/05/06 07:58:04;;;;;;;;;34.25;31.00;;;;;16.03;65.87;102462.09;5066183;28;49906;-68
2022/05/06 08:00:31;;;;;;;;;31.25;29.50;;;;;16.07;65.34;102451.56;5065676;28;49911;-69
2022/05/06 08:05:40;;;;;;;;;27.50;27.00;;;;;15.91;65.52;102418.50;5063125;28;49804;-72
2022/05/06 08:08:06;;;;;;;;;26.50;25.75;;;;;16.06;65.53;102423.28;5065664;28;50990;-69
2022/05/06 08:10:31;;;;;;;;;24.25;21.75;;;;;16.27;65.20;102445.00;5065470;28;49700;-69
2022/05/06 08:12:57;;;;;;;;;22.75;22.00;;;;;16.16;65.19;102436.78;5065763;27;49934;-69
2022/05/06 08:15:23;;;;;;;;;23.00;20.50;;;;;16.16;64.67;102451.81;5065329;27;49791;-67
2022/05/06 08:17:49;;;;;;;;;23.25;22.50;;;;;16.02;65.63;102451.47;5065733;27;50867;-69
2022/05/06 08:20:15;;;;;;;;;23.25;23.00;;;;;16.14;65.15;102446.47;5065154;28;49804;-69
2022/05/06 08:22:41;;;;;;;;;16.75;16.00;;;;;16.14;65.05;102442.94;5064296;28;50066;-71
2022/05/06 08:25:11;;;;;;;;;16.00;12.25;;;;;16.05;65.12;102421.50;5066057;28;50020;-79
2022/05/06 08:27:37;;;;;;;;;25.25;19.25;;;;;16.03;65.14;102419.72;5067144;28;49848;-69
2022/05/06 08:30:08;;;;;;;;;21.00;18.50;;;;;16.15;64.90;102429.72;5070507;27;49751;-73
2022/05/06 08:32:33;;;;;;;;;21.50;18.75;;;;;16.31;64.63;102445.13;5070761;27;49802;-71
2022/05/06 08:34:59;;;;;;;;;20.25;18.25;;;;;16.23;64.70;102438.75;5067130;27;49691;-74
2022/05/06 08:37:25;;;;;;;;;18.75;13.50;;;;;16.34;65.14;102436.34;5067951;27;51238;-70
2022/05/06 08:39:51;;;;;;;;;20.25;20.25;;;;;16.35;64.49;102442.53;5068700;27;49866;-71
2022/05/06 08:42:20;;;;;;;;;21.75;18.75;;;;;16.35;64.81;102422.22;5068668;27;49898;-70
2022/05/06 08:53:05;;;;;;;;;16.25;14.25;;;;;16.73;63.93;102428.44;5068472;28;49951;-74
2022/05/06 08:55:32;;;;;;;;;17.75;15.00;;;;;16.67;63.78;102403.50;5069983;27;49874;-70
2022/05/06 08:57:58;;;;;;;;;15.25;14.00;;;;;16.74;63.12;102419.63;5067661;28;50851;-69
2022/05/06 09:00:28;;;;;;;;;15.00;12.75;;;;;16.72;63.48;102402.78;5065801;28;50136;-69
2022/05/06 09:02:53;;;;;;;;;18.75;16.50;;;;;17.05;63.70;102426.47;5065836;28;50003;-71
2022/05/06 09:05:20;;;;;;;;;12.25;11.00;;;;;17.13;63.56;102414.25;5067995;28;49998;-68
2022/05/06 09:08:02;;;;;;;;;10.50;10.50;;;;;17.17;62.36;102402.81;5070398;27;50734;-69
2022/05/06 09:10:27;;;;;;;;;13.50;11.00;;;;;17.37;61.65;102418.25;5069270;27;49844;-79
2022/05/06 09:12:56;;;;;;;;;7.25;7.25;;;;;17.27;60.22;102403.00;5069716;27;49825;-73
2022/05/06 09:18:09;;;;;;;;;12.25;9.25;;;;;17.35;60.39;102407.59;5065638;28;50304;-78
2022/05/06 09:20:36;;;;;;;;;10.00;8.00;;;;;17.58;60.50;102425.75;5066118;27;50143;-73
2022/05/06 09:23:24;;;;;;;;;6.00;6.00;;;;;17.71;60.50;102431.31;5067131;27;49844;-77
2022/05/06 09:25:51;;;;;;;;;6.00;6.00;;;;;17.83;59.85;102414.69;5066848;27;49725;-69
2022/05/06 09:28:30;;;;;;;;;11.00;11.00;;;;;17.74;57.29;102420.75;5068559;28;50444;-68
2022/05/06 09:31:02;;;;;;;;;11.75;9.00;;;;;17.66;56.71;102421.44;5066487;28;49806;-71
2022/05/06 09:33:30;;;;;;;;;7.50;7.50;;;;;17.60;56.94;102416.03;5073064;28;49605;-73
2022/05/06 09:35:56;;;;;;;;;10.00;9.75;;;;;17.59;56.19;102412.47;5073189;28;49882;-71
2022/05/06 09:38:24;;;;;;;;;8.00;7.25;;;;;17.58;56.58;102420.44;5071647;28;49732;-69
2022/05/06 09:40:50;;;;;;;;;11.00;10.25;;;;;17.57;56.86;102410.69;5072580;27;49683;-69
2022/05/06 09:43:18;;;;;;;;;7.00;7.00;;;;;17.66;57.11;102409.09;5072310;27;49690;-75
2022/05/06 09:45:44;;;;;;;;;6.00;6.00;;;;;17.78;56.71;102403.13;5072821;27;50009;-75
2022/05/06 09:48:14;;;;;;;;;7.00;7.00;;;;;17.81;56.99;102381.91;5072428;28;50146;-74
2022/05/06 09:50:40;;;;;;;;;12.25;10.00;;;;;18.00;55.17;102415.00;5072604;28;49761;-74
2022/05/06 09:53:08;;;;;;;;;7.25;6.25;;;;;17.82;55.05;102414.69;5071014;28;49725;-77
2022/05/06 09:55:40;;;;;;;;;10.00;9.00;;;;;17.88;55.45;102399.75;5076622;27;50052;-79
2022/05/06 09:58:06;;;;;;;;;7.75;7.75;;;;;17.91;54.77;102391.81;5072195;27;50034;-74
2022/05/06 10:00:32;;;;;;;;;8.00;8.00;;;;;18.00;55.31;102391.06;5070580;27;49693;-72
2022/05/06 10:02:59;;;;;;;;;8.75;8.00;;;;;18.16;55.33;102386.91;5072143;27;49897;-73
2022/05/06 10:05:24;;;;;;;;;9.50;9.00;;;;;18.28;54.70;102395.06;5072221;27;49966;-74
2022/05/06 10:07:55;;;;;;;;;7.50;7.50;;;;;18.24;53.81;102362.22;5071725;28;50661;-75
2022/05/06 10:10:24;;;;;;;;;11.00;9.25;;;;;18.41;53.23;102389.03;5070369;27;49777;-73
2022/05/06 10:12:57;;;;;;;;;7.75;7.75;;;;;18.25;53.37;102357.81;5052706;28;49742;-74
2022/05/06 10:15:26;;;;;;;;;10.50;8.75;;;;;18.41;53.52;102377.50;5074162;27;49938;-74
2022/05/06 10:17:54;;;;;;;;;7.75;7.75;;;;;18.37;52.70;102396.97;5074029;27;49941;-78
2022/05/06 10:20:44;;;;;;;;;9.75;8.75;;;;;18.51;52.98;102390.94;5072034;28;49676;-79
2022/05/06 10:23:15;;;;;;;;;9.00;8.00;;;;;18.46;53.40;102373.16;5070258;28;49856;-74
2022/05/06 10:25:41;;;;;;;;;10.00;10.00;;;;;18.56;52.15;102394.59;5070823;28;49938;-75
2022/05/06 10:34:29;;;;;;;;;6.75;5.00;;;;;18.48;51.87;102348.38;5067696;28;49666;-78
2022/05/06 10:36:57;;;;;;;;;9.25;9.25;;;;;18.55;52.70;102375.94;5070288;27;50072;-77
2022/05/06 10:39:33;;;;;;;;;9.25;7.75;;;;;18.66;52.67;102379.69;5071465;28;50874;-75
2022/05/06 10:42:16;;;;;;;;;9.50;7.00;;;;;18.93;52.47;102371.16;5070103;28;49906;-77
2022/05/06 10:44:48;;;;;;;;;9.00;9.00;;;;;18.98;51.00;102355.22;5072516;27;49738;-71
2022/05/06 10:47:13;;;;;;;;;8.00;8.00;;;;;19.11;51.76;102374.03;5071895;27;49885;-73
2022/05/06 10:49:38;;;;;;;;;7.25;7.25;;;;;19.30;51.89;102369.81;5073917;27;51344;-76
2022/05/06 10:52:16;;;;;;;;;15.25;12.25;;;;;19.36;50.88;102369.84;5077903;27;49801;-75
2022/05/06 10:54:47;;;;;;;;;23.25;23.25;;;;;19.34;50.84;102365.38;5070700;28;49805;-74
2022/05/06 10:57:14;;;;;;;;;11.00;11.00;;;;;19.29;50.86;102346.69;5065896;27;50196;-75
2022/05/06 10:59:58;;;;;;;;;13.00;10.00;;;;;19.38;49.38;102365.41;5079988;27;52389;-72
2022/05/06 11:02:26;;;;;;;;;7.00;7.00;;;;;19.36;50.30;102360.97;5067600;27;49762;-70
2022/05/06 11:04:51;;;;;;;;;12.25;11.75;;;;;19.24;49.22;102356.41;5066662;28;49700;-69
2022/05/06 11:07:17;;;;;;;;;8.50;8.50;;;;;19.11;49.38;102333.22;5075653;27;49836;-70
2022/05/06 11:09:43;;;;;;;;;7.75;7.75;;;;;19.14;49.11;102355.44;5071907;27;50715;-69
2022/05/06 11:12:09;;;;;;;;;8.50;7.75;;;;;19.20;50.08;102346.59;5071106;27;49715;-68
2022/05/06 11:14:34;;;;;;;;;7.75;7.50;;;;;19.29;49.70;102345.78;5071881;27;49972;-66
2022/05/06 11:17:16;;;;;;;;;8.00;8.00;;;;;19.43;49.54;102352.16;5070816;27;49730;-67
2022/05/06 11:19:42;;;;;;;;;10.00;9.25;;;;;19.45;48.56;102337.97;5069295;28;51514;-66
2022/05/06 11:22:08;;;;;;;;;4.25;4.00;;;;;19.48;48.87;102334.44;5070624;27;49739;-67
2022/05/06 11:24:34;;;;;;;;;8.75;8.75;;;;;19.57;48.64;102341.66;5072268;27;49960;-66
2022/05/06 11:27:12;;;;;;;;;6.00;5.25;;;;;19.64;48.48;102348.84;5071068;28;50022;-66
2022/05/06 11:29:50;;;;;;;;;8.50;8.50;;;;;19.56;46.21;102342.53;5071252;27;50945;-65
2022/05/06 11:32:17;;;;;;;;;6.50;5.50;;;;;19.57;47.38;102326.56;5071014;27;49827;-68
2022/05/06 11:34:49;;;;;;;;;5.25;3.75;;;;;19.62;46.40;102342.59;5077521;27;50127;-67
2022/05/06 11:37:24;;;;;;;;;6.25;6.25;;;;;19.57;47.41;102326.56;5077535;27;49624;-66
2022/05/06 11:39:51;;;;;;;;;7.25;6.25;;;;;19.73;46.33;102330.25;5078585;27;50022;-68
2022/05/06 11:42:22;;;;;;;;;5.25;5.25;;;;;19.77;46.88;102333.81;5077400;27;49726;-68
2022/05/06 11:47:42;;;;;;;;;6.50;6.50;;;;;20.06;46.84;102321.59;5072027;27;49978;-66
2022/05/06 11:50:08;;;;;;;;;3.00;3.00;;;;;20.23;47.19;102338.59;5070170;28;49806;-70
2022/05/06 11:52:34;;;;;;;;;5.00;5.00;;;;;20.13;46.53;102306.53;5070531;27;49890;-67
2022/05/06 11:55:01;;;;;;;;;5.00;4.50;;;;;20.30;46.72;102319.09;5069993;27;49688;-67